sensor_id;sensor_type;location;lat;lon;timestamp;P1;durP1;ratioP1;P2;durP2;ratioP2
78561;SDS011;68963;52.138;5.446;2023-04-29T00:00:20;36.70;;;15.02;;
78561;SDS011;68963;52.138;5.446;2023-04-29T00:02:46;36.40;;;14.80;;
78561;SDS011;68963;52.138;5.446;2023-04-29T00:05:13;34.67;;;14.32;;
78561;SDS011;68963;52.138;5.446;2023-04-29T00:07:40;38.53;;;15.30;;
78561;SDS011;68963;52.138;5.446;2023-04-29T00:10:07;32.38;;;14.00;;
78561;SDS011;68963;52.138;5.446;2023-04-29T00:12:34;36.55;;;14.50;;
78561;SDS011;68963;52.138;5.446;2023-04-29T00:15:00;36.97;;;14.77;;
78561;SDS011;68963;52.138;5.446;2023-04-29T00:17:28;35.38;;;15.60;;
78561;SDS011;68963;52.138;5.446;2023-04-29T00:19:54;37.08;;;14.93;;
78561;SDS011;68963;52.138;5.446;2023-04-29T00:22:21;36.88;;;15.10;;
78561;SDS011;68963;52.138;5.446;2023-04-29T00:24:48;39.15;;;15.40;;
78561;SDS011;68963;52.138;5.446;2023-04-29T00:27:14;36.97;;;14.82;;
78561;SDS011;68963;52.138;5.446;2023-04-29T00:29:42;38.55;;;15.27;;
78561;SDS011;68963;52.138;5.446;2023-04-29T00:32:08;39.40;;;14.93;;
78561;SDS011;68963;52.138;5.446;2023-04-29T00:34:35;39.53;;;15.35;;
78561;SDS011;68963;52.138;5.446;2023-04-29T00:37:01;37.90;;;15.45;;
78561;SDS011;68963;52.138;5.446;2023-04-29T00:39:29;36.38;;;14.88;;
78561;SDS011;68963;52.138;5.446;2023-04-29T00:41:55;37.78;;;14.77;;
78561;SDS011;68963;52.138;5.446;2023-04-29T00:44:22;34.05;;;15.48;;
78561;SDS011;68963;52.138;5.446;2023-04-29T00:46:48;30.58;;;14.75;;
78561;SDS011;68963;52.138;5.446;2023-04-29T00:49:14;37.95;;;15.70;;
78561;SDS011;68963;52.138;5.446;2023-04-29T00:51:41;34.97;;;14.65;;
78561;SDS011;68963;52.138;5.446;2023-04-29T00:54:09;35.75;;;14.80;;
78561;SDS011;68963;52.138;5.446;2023-04-29T00:56:36;32.80;;;15.25;;
78561;SDS011;68963;52.138;5.446;2023-04-29T00:59:07;34.28;;;15.07;;
78561;SDS011;68963;52.138;5.446;2023-04-29T01:01:35;34.88;;;14.35;;
78561;SDS011;68963;52.138;5.446;2023-04-29T01:04:02;34.85;;;13.57;;
78561;SDS011;68963;52.138;5.446;2023-04-29T01:06:36;29.02;;;13.52;;
78561;SDS011;68963;52.138;5.446;2023-04-29T01:09:19;30.42;;;13.68;;
78561;SDS011;68963;52.138;5.446;2023-04-29T01:11:54;33.80;;;13.30;;
78561;SDS011;68963;52.138;5.446;2023-04-29T01:14:24;32.92;;;13.13;;
78561;SDS011;68963;52.138;5.446;2023-04-29T01:16:51;29.58;;;13.20;;
78561;SDS011;68963;52.138;5.446;2023-04-29T01:22:18;31.77;;;13.55;;
78561;SDS011;68963;52.138;5.446;2023-04-29T01:24:47;31.35;;;14.07;;
78561;SDS011;68963;52.138;5.446;2023-04-29T01:35:44;32.90;;;13.95;;
78561;SDS011;68963;52.138;5.446;2023-04-29T01:41:34;34.58;;;14.27;;
78561;SDS011;68963;52.138;5.446;2023-04-29T01:44:10;31.67;;;14.55;;
78561;SDS011;68963;52.138;5.446;2023-04-29T01:46:42;32.75;;;14.68;;
78561;SDS011;68963;52.138;5.446;2023-04-29T01:49:14;35.08;;;14.10;;
78561;SDS011;68963;52.138;5.446;2023-04-29T01:51:41;34.60;;;14.43;;
78561;SDS011;68963;52.138;5.446;2023-04-29T01:54:07;34.25;;;14.77;;
78561;SDS011;68963;52.138;5.446;2023-04-29T01:56:34;31.27;;;13.90;;
78561;SDS011;68963;52.138;5.446;2023-04-29T01:59:00;30.88;;;14.40;;
78561;SDS011;68963;52.138;5.446;2023-04-29T02:01:27;30.98;;;13.30;;
78561;SDS011;68963;52.138;5.446;2023-04-29T02:03:53;30.77;;;13.30;;
78561;SDS011;68963;52.138;5.446;2023-04-29T02:06:20;29.75;;;13.63;;
78561;SDS011;68963;52.138;5.446;2023-04-29T02:08:46;32.42;;;13.27;;
78561;SDS011;68963;52.138;5.446;2023-04-29T02:11:14;31.45;;;13.63;;
78561;SDS011;68963;52.138;5.446;2023-04-29T02:13:40;32.40;;;13.73;;
78561;SDS011;68963;52.138;5.446;2023-04-29T02:16:08;27.80;;;12.93;;
78561;SDS011;68963;52.138;5.446;2023-04-29T02:18:36;30.65;;;13.32;;
78561;SDS011;68963;52.138;5.446;2023-04-29T02:21:02;34.42;;;14.13;;
78561;SDS011;68963;52.138;5.446;2023-04-29T02:23:29;30.33;;;13.27;;
78561;SDS011;68963;52.138;5.446;2023-04-29T02:25:56;33.45;;;13.63;;
78561;SDS011;68963;52.138;5.446;2023-04-29T02:28:22;28.15;;;13.52;;
78561;SDS011;68963;52.138;5.446;2023-04-29T02:30:49;30.20;;;13.80;;
78561;SDS011;68963;52.138;5.446;2023-04-29T02:33:15;28.90;;;12.73;;
78561;SDS011;68963;52.138;5.446;2023-04-29T02:35:43;28.35;;;12.57;;
78561;SDS011;68963;52.138;5.446;2023-04-29T02:38:10;25.95;;;12.43;;
78561;SDS011;68963;52.138;5.446;2023-04-29T02:40:40;27.45;;;12.43;;
78561;SDS011;68963;52.138;5.446;2023-04-29T02:43:10;23.10;;;11.32;;
78561;SDS011;68963;52.138;5.446;2023-04-29T02:45:37;23.75;;;11.60;;
78561;SDS011;68963;52.138;5.446;2023-04-29T02:48:05;26.17;;;12.18;;
78561;SDS011;68963;52.138;5.446;2023-04-29T02:50:32;24.45;;;11.18;;
78561;SDS011;68963;52.138;5.446;2023-04-29T02:52:58;25.20;;;11.55;;
78561;SDS011;68963;52.138;5.446;2023-04-29T02:55:25;24.33;;;11.98;;
78561;SDS011;68963;52.138;5.446;2023-04-29T02:57:52;25.95;;;11.70;;
78561;SDS011;68963;52.138;5.446;2023-04-29T03:00:18;27.63;;;11.23;;
78561;SDS011;68963;52.138;5.446;2023-04-29T03:02:45;27.05;;;11.55;;
78561;SDS011;68963;52.138;5.446;2023-04-29T03:05:12;26.92;;;11.52;;
78561;SDS011;68963;52.138;5.446;2023-04-29T03:07:39;25.95;;;12.15;;
78561;SDS011;68963;52.138;5.446;2023-04-29T03:10:05;25.25;;;11.88;;
78561;SDS011;68963;52.138;5.446;2023-04-29T03:12:32;27.77;;;12.00;;
78561;SDS011;68963;52.138;5.446;2023-04-29T03:14:59;25.98;;;11.70;;
78561;SDS011;68963;52.138;5.446;2023-04-29T03:17:26;24.13;;;12.32;;
78561;SDS011;68963;52.138;5.446;2023-04-29T03:19:52;28.65;;;12.20;;
78561;SDS011;68963;52.138;5.446;2023-04-29T03:22:19;25.40;;;12.40;;
78561;SDS011;68963;52.138;5.446;2023-04-29T03:24:46;25.45;;;12.25;;
78561;SDS011;68963;52.138;5.446;2023-04-29T03:27:12;26.13;;;12.07;;
78561;SDS011;68963;52.138;5.446;2023-04-29T03:29:39;23.83;;;11.63;;
78561;SDS011;68963;52.138;5.446;2023-04-29T03:32:05;26.33;;;11.70;;
78561;SDS011;68963;52.138;5.446;2023-04-29T03:34:32;25.65;;;12.20;;
78561;SDS011;68963;52.138;5.446;2023-04-29T03:36:59;24.38;;;11.32;;
78561;SDS011;68963;52.138;5.446;2023-04-29T03:39:26;24.80;;;11.48;;
78561;SDS011;68963;52.138;5.446;2023-04-29T03:41:57;23.50;;;10.52;;
78561;SDS011;68963;52.138;5.446;2023-04-29T03:44:25;26.42;;;11.88;;
78561;SDS011;68963;52.138;5.446;2023-04-29T03:46:51;24.88;;;12.05;;
78561;SDS011;68963;52.138;5.446;2023-04-29T03:49:18;23.92;;;11.48;;
78561;SDS011;68963;52.138;5.446;2023-04-29T03:51:44;24.92;;;12.20;;
78561;SDS011;68963;52.138;5.446;2023-04-29T03:54:11;25.35;;;12.52;;
78561;SDS011;68963;52.138;5.446;2023-04-29T03:56:38;28.88;;;12.23;;
78561;SDS011;68963;52.138;5.446;2023-04-29T03:59:04;25.45;;;12.85;;
78561;SDS011;68963;52.138;5.446;2023-04-29T04:01:31;27.52;;;13.00;;
78561;SDS011;68963;52.138;5.446;2023-04-29T04:03:58;26.80;;;12.88;;
78561;SDS011;68963;52.138;5.446;2023-04-29T04:06:25;25.90;;;13.40;;
78561;SDS011;68963;52.138;5.446;2023-04-29T04:08:52;24.90;;;12.98;;
78561;SDS011;68963;52.138;5.446;2023-04-29T04:11:18;24.50;;;12.38;;
78561;SDS011;68963;52.138;5.446;2023-04-29T04:13:44;28.25;;;12.07;;
78561;SDS011;68963;52.138;5.446;2023-04-29T04:16:11;27.23;;;12.15;;
78561;SDS011;68963;52.138;5.446;2023-04-29T04:18:38;23.98;;;11.98;;
78561;SDS011;68963;52.138;5.446;2023-04-29T04:21:06;24.60;;;12.30;;
78561;SDS011;68963;52.138;5.446;2023-04-29T04:23:36;24.95;;;11.93;;
78561;SDS011;68963;52.138;5.446;2023-04-29T04:26:05;24.08;;;12.20;;
78561;SDS011;68963;52.138;5.446;2023-04-29T04:28:32;25.52;;;12.32;;
78561;SDS011;68963;52.138;5.446;2023-04-29T04:30:59;25.13;;;12.02;;
78561;SDS011;68963;52.138;5.446;2023-04-29T04:33:25;21.55;;;11.25;;
78561;SDS011;68963;52.138;5.446;2023-04-29T04:35:52;22.98;;;10.95;;
78561;SDS011;68963;52.138;5.446;2023-04-29T04:38:19;23.50;;;11.30;;
78561;SDS011;68963;52.138;5.446;2023-04-29T04:40:45;22.00;;;11.30;;
78561;SDS011;68963;52.138;5.446;2023-04-29T04:43:12;23.98;;;12.10;;
78561;SDS011;68963;52.138;5.446;2023-04-29T04:45:38;23.40;;;11.48;;
78561;SDS011;68963;52.138;5.446;2023-04-29T04:48:05;22.83;;;11.45;;
78561;SDS011;68963;52.138;5.446;2023-04-29T04:50:32;24.52;;;11.50;;
78561;SDS011;68963;52.138;5.446;2023-04-29T04:52:58;23.13;;;11.52;;
78561;SDS011;68963;52.138;5.446;2023-04-29T04:55:25;24.13;;;11.38;;
78561;SDS011;68963;52.138;5.446;2023-04-29T04:57:51;23.65;;;12.15;;
78561;SDS011;68963;52.138;5.446;2023-04-29T05:00:18;21.35;;;11.13;;
78561;SDS011;68963;52.138;5.446;2023-04-29T05:02:44;25.15;;;11.77;;
78561;SDS011;68963;52.138;5.446;2023-04-29T05:05:11;23.30;;;11.20;;
78561;SDS011;68963;52.138;5.446;2023-04-29T05:07:37;22.52;;;11.15;;
78561;SDS011;68963;52.138;5.446;2023-04-29T05:10:05;24.58;;;11.38;;
78561;SDS011;68963;52.138;5.446;2023-04-29T05:12:32;23.75;;;11.02;;
78561;SDS011;68963;52.138;5.446;2023-04-29T05:15:00;21.58;;;11.27;;
78561;SDS011;68963;52.138;5.446;2023-04-29T05:17:27;21.85;;;11.60;;
78561;SDS011;68963;52.138;5.446;2023-04-29T05:19:54;21.38;;;10.88;;
78561;SDS011;68963;52.138;5.446;2023-04-29T05:22:20;23.17;;;11.95;;
78561;SDS011;68963;52.138;5.446;2023-04-29T05:24:47;23.23;;;10.50;;
78561;SDS011;68963;52.138;5.446;2023-04-29T05:27:14;21.45;;;11.07;;
78561;SDS011;68963;52.138;5.446;2023-04-29T05:29:40;20.10;;;10.80;;
78561;SDS011;68963;52.138;5.446;2023-04-29T05:32:07;26.77;;;11.48;;
78561;SDS011;68963;52.138;5.446;2023-04-29T05:34:33;24.92;;;11.40;;
78561;SDS011;68963;52.138;5.446;2023-04-29T05:37:00;22.45;;;10.98;;
78561;SDS011;68963;52.138;5.446;2023-04-29T05:39:26;22.52;;;11.00;;
78561;SDS011;68963;52.138;5.446;2023-04-29T05:41:53;23.48;;;10.60;;
78561;SDS011;68963;52.138;5.446;2023-04-29T05:44:19;21.10;;;10.70;;
78561;SDS011;68963;52.138;5.446;2023-04-29T05:46:46;22.70;;;11.00;;
78561;SDS011;68963;52.138;5.446;2023-04-29T05:49:13;21.48;;;10.18;;
78561;SDS011;68963;52.138;5.446;2023-04-29T05:51:41;22.98;;;11.02;;
78561;SDS011;68963;52.138;5.446;2023-04-29T05:54:07;22.10;;;10.68;;
78561;SDS011;68963;52.138;5.446;2023-04-29T05:56:34;23.50;;;11.25;;
78561;SDS011;68963;52.138;5.446;2023-04-29T05:59:00;22.65;;;11.82;;
78561;SDS011;68963;52.138;5.446;2023-04-29T06:01:27;25.48;;;11.75;;
78561;SDS011;68963;52.138;5.446;2023-04-29T06:03:53;26.13;;;11.48;;
78561;SDS011;68963;52.138;5.446;2023-04-29T06:06:20;22.70;;;11.07;;
78561;SDS011;68963;52.138;5.446;2023-04-29T06:08:47;22.08;;;11.40;;
78561;SDS011;68963;52.138;5.446;2023-04-29T06:11:14;26.55;;;11.88;;
78561;SDS011;68963;52.138;5.446;2023-04-29T06:13:40;23.40;;;11.05;;
78561;SDS011;68963;52.138;5.446;2023-04-29T06:16:07;25.70;;;11.93;;
78561;SDS011;68963;52.138;5.446;2023-04-29T06:18:34;26.52;;;11.52;;
78561;SDS011;68963;52.138;5.446;2023-04-29T06:21:00;24.50;;;11.10;;
78561;SDS011;68963;52.138;5.446;2023-04-29T06:23:27;22.65;;;10.88;;
78561;SDS011;68963;52.138;5.446;2023-04-29T06:25:53;22.67;;;10.18;;
78561;SDS011;68963;52.138;5.446;2023-04-29T06:28:20;23.38;;;10.88;;
78561;SDS011;68963;52.138;5.446;2023-04-29T06:30:46;21.73;;;10.55;;
78561;SDS011;68963;52.138;5.446;2023-04-29T06:33:13;23.75;;;10.55;;
78561;SDS011;68963;52.138;5.446;2023-04-29T06:35:39;21.73;;;10.77;;
78561;SDS011;68963;52.138;5.446;2023-04-29T06:38:06;23.50;;;11.18;;
78561;SDS011;68963;52.138;5.446;2023-04-29T06:40:36;24.88;;;11.10;;
78561;SDS011;68963;52.138;5.446;2023-04-29T06:43:02;24.08;;;11.48;;
78561;SDS011;68963;52.138;5.446;2023-04-29T06:45:29;21.70;;;10.35;;
78561;SDS011;68963;52.138;5.446;2023-04-29T06:47:57;23.25;;;10.95;;
78561;SDS011;68963;52.138;5.446;2023-04-29T06:50:23;22.05;;;10.30;;
78561;SDS011;68963;52.138;5.446;2023-04-29T06:52:50;21.20;;;9.68;;
78561;SDS011;68963;52.138;5.446;2023-04-29T06:55:16;20.58;;;9.98;;
78561;SDS011;68963;52.138;5.446;2023-04-29T06:57:43;24.55;;;9.82;;
78561;SDS011;68963;52.138;5.446;2023-04-29T07:00:09;23.02;;;10.00;;
78561;SDS011;68963;52.138;5.446;2023-04-29T07:02:37;20.88;;;9.63;;
78561;SDS011;68963;52.138;5.446;2023-04-29T07:05:04;21.30;;;9.95;;
78561;SDS011;68963;52.138;5.446;2023-04-29T07:07:31;25.00;;;10.57;;
78561;SDS011;68963;52.138;5.446;2023-04-29T07:09:58;21.15;;;9.88;;
78561;SDS011;68963;52.138;5.446;2023-04-29T07:12:25;18.50;;;9.45;;
78561;SDS011;68963;52.138;5.446;2023-04-29T07:14:51;17.95;;;9.45;;
78561;SDS011;68963;52.138;5.446;2023-04-29T07:17:18;23.83;;;9.60;;
78561;SDS011;68963;52.138;5.446;2023-04-29T07:19:45;18.80;;;8.93;;
78561;SDS011;68963;52.138;5.446;2023-04-29T07:22:12;23.55;;;9.55;;
78561;SDS011;68963;52.138;5.446;2023-04-29T07:24:39;20.58;;;8.90;;
78561;SDS011;68963;52.138;5.446;2023-04-29T07:27:05;19.92;;;9.02;;
78561;SDS011;68963;52.138;5.446;2023-04-29T07:29:32;18.13;;;8.52;;
78561;SDS011;68963;52.138;5.446;2023-04-29T07:31:59;17.50;;;9.15;;
78561;SDS011;68963;52.138;5.446;2023-04-29T07:34:25;18.08;;;8.60;;
78561;SDS011;68963;52.138;5.446;2023-04-29T07:36:52;18.63;;;8.27;;
78561;SDS011;68963;52.138;5.446;2023-04-29T07:39:18;16.05;;;8.20;;
78561;SDS011;68963;52.138;5.446;2023-04-29T07:41:45;18.15;;;8.52;;
78561;SDS011;68963;52.138;5.446;2023-04-29T07:44:11;17.30;;;8.00;;
78561;SDS011;68963;52.138;5.446;2023-04-29T07:46:38;16.15;;;7.53;;
78561;SDS011;68963;52.138;5.446;2023-04-29T07:49:04;15.88;;;7.40;;
78561;SDS011;68963;52.138;5.446;2023-04-29T07:51:32;16.88;;;7.70;;
78561;SDS011;68963;52.138;5.446;2023-04-29T07:53:58;19.83;;;7.82;;
78561;SDS011;68963;52.138;5.446;2023-04-29T07:56:25;13.85;;;6.97;;
78561;SDS011;68963;52.138;5.446;2023-04-29T07:58:51;16.63;;;7.72;;
78561;SDS011;68963;52.138;5.446;2023-04-29T08:01:18;14.50;;;7.63;;
78561;SDS011;68963;52.138;5.446;2023-04-29T08:03:44;17.88;;;7.95;;
78561;SDS011;68963;52.138;5.446;2023-04-29T08:06:11;13.90;;;6.88;;
78561;SDS011;68963;52.138;5.446;2023-04-29T08:08:38;15.23;;;7.22;;
78561;SDS011;68963;52.138;5.446;2023-04-29T08:11:04;15.45;;;7.78;;
78561;SDS011;68963;52.138;5.446;2023-04-29T08:13:31;14.27;;;6.97;;
78561;SDS011;68963;52.138;5.446;2023-04-29T08:15:58;13.38;;;6.93;;
78561;SDS011;68963;52.138;5.446;2023-04-29T08:18:25;14.30;;;6.65;;
78561;SDS011;68963;52.138;5.446;2023-04-29T08:20:51;13.93;;;6.35;;
78561;SDS011;68963;52.138;5.446;2023-04-29T08:23:18;14.10;;;7.00;;
78561;SDS011;68963;52.138;5.446;2023-04-29T08:25:44;16.10;;;7.13;;
78561;SDS011;68963;52.138;5.446;2023-04-29T08:28:11;14.20;;;6.82;;
78561;SDS011;68963;52.138;5.446;2023-04-29T08:30:38;15.07;;;7.20;;
78561;SDS011;68963;52.138;5.446;2023-04-29T08:33:06;15.55;;;7.00;;
78561;SDS011;68963;52.138;5.446;2023-04-29T08:35:34;15.50;;;6.70;;
78561;SDS011;68963;52.138;5.446;2023-04-29T08:38:05;15.88;;;6.47;;
78561;SDS011;68963;52.138;5.446;2023-04-29T08:40:33;12.20;;;6.25;;
78561;SDS011;68963;52.138;5.446;2023-04-29T08:43:02;13.60;;;7.10;;
78561;SDS011;68963;52.138;5.446;2023-04-29T08:45:29;13.80;;;6.50;;
78561;SDS011;68963;52.138;5.446;2023-04-29T08:47:57;14.40;;;6.72;;
78561;SDS011;68963;52.138;5.446;2023-04-29T08:50:24;15.98;;;6.82;;
78561;SDS011;68963;52.138;5.446;2023-04-29T08:52:53;13.93;;;6.60;;
78561;SDS011;68963;52.138;5.446;2023-04-29T08:55:21;14.55;;;6.47;;
78561;SDS011;68963;52.138;5.446;2023-04-29T08:57:48;14.55;;;6.47;;
78561;SDS011;68963;52.138;5.446;2023-04-29T09:00:17;14.40;;;6.28;;
78561;SDS011;68963;52.138;5.446;2023-04-29T09:02:53;13.93;;;6.50;;
78561;SDS011;68963;52.138;5.446;2023-04-29T09:05:22;15.13;;;6.10;;
78561;SDS011;68963;52.138;5.446;2023-04-29T09:07:50;14.38;;;6.95;;
78561;SDS011;68963;52.138;5.446;2023-04-29T09:10:17;15.73;;;6.20;;
78561;SDS011;68963;52.138;5.446;2023-04-29T09:12:44;13.70;;;6.60;;
78561;SDS011;68963;52.138;5.446;2023-04-29T09:15:11;13.48;;;6.63;;
78561;SDS011;68963;52.138;5.446;2023-04-29T09:17:45;12.15;;;6.53;;
78561;SDS011;68963;52.138;5.446;2023-04-29T09:22:48;15.15;;;6.82;;
78561;SDS011;68963;52.138;5.446;2023-04-29T09:25:16;13.63;;;7.00;;
78561;SDS011;68963;52.138;5.446;2023-04-29T09:27:43;13.60;;;6.25;;
78561;SDS011;68963;52.138;5.446;2023-04-29T09:30:09;10.50;;;6.00;;
78561;SDS011;68963;52.138;5.446;2023-04-29T09:32:37;13.38;;;6.28;;
78561;SDS011;68963;52.138;5.446;2023-04-29T09:35:20;11.48;;;6.03;;
78561;SDS011;68963;52.138;5.446;2023-04-29T09:37:49;13.25;;;6.75;;
78561;SDS011;68963;52.138;5.446;2023-04-29T09:40:31;11.75;;;5.68;;
78561;SDS011;68963;52.138;5.446;2023-04-29T09:43:16;13.02;;;6.72;;
78561;SDS011;68963;52.138;5.446;2023-04-29T09:45:44;12.07;;;6.28;;
78561;SDS011;68963;52.138;5.446;2023-04-29T09:48:12;12.45;;;5.93;;
78561;SDS011;68963;52.138;5.446;2023-04-29T09:53:09;14.15;;;5.72;;
78561;SDS011;68963;52.138;5.446;2023-04-29T09:58:28;11.40;;;5.90;;
78561;SDS011;68963;52.138;5.446;2023-04-29T10:00:59;12.70;;;5.75;;
78561;SDS011;68963;52.138;5.446;2023-04-29T10:03:31;10.90;;;5.78;;
78561;SDS011;68963;52.138;5.446;2023-04-29T10:06:00;9.35;;;5.00;;
78561;SDS011;68963;52.138;5.446;2023-04-29T10:08:28;11.30;;;5.97;;
78561;SDS011;68963;52.138;5.446;2023-04-29T10:10:58;11.10;;;5.93;;
78561;SDS011;68963;52.138;5.446;2023-04-29T10:13:26;11.80;;;6.03;;
78561;SDS011;68963;52.138;5.446;2023-04-29T10:15:59;11.27;;;6.30;;
78561;SDS011;68963;52.138;5.446;2023-04-29T10:18:35;11.50;;;5.53;;
78561;SDS011;68963;52.138;5.446;2023-04-29T10:21:05;11.77;;;5.88;;
78561;SDS011;68963;52.138;5.446;2023-04-29T10:23:33;12.82;;;5.80;;
78561;SDS011;68963;52.138;5.446;2023-04-29T10:26:01;10.02;;;5.45;;
78561;SDS011;68963;52.138;5.446;2023-04-29T10:28:32;11.35;;;5.10;;
78561;SDS011;68963;52.138;5.446;2023-04-29T10:31:00;9.43;;;4.68;;
78561;SDS011;68963;52.138;5.446;2023-04-29T10:33:30;12.02;;;5.57;;
78561;SDS011;68963;52.138;5.446;2023-04-29T10:36:00;11.23;;;5.47;;
78561;SDS011;68963;52.138;5.446;2023-04-29T10:38:29;11.88;;;5.97;;
78561;SDS011;68963;52.138;5.446;2023-04-29T10:41:03;9.18;;;5.00;;
78561;SDS011;68963;52.138;5.446;2023-04-29T10:43:36;10.27;;;4.95;;
78561;SDS011;68963;52.138;5.446;2023-04-29T10:51:41;10.15;;;4.63;;
78561;SDS011;68963;52.138;5.446;2023-04-29T10:54:12;8.50;;;4.43;;
78561;SDS011;68963;52.138;5.446;2023-04-29T10:56:41;10.57;;;5.30;;
78561;SDS011;68963;52.138;5.446;2023-04-29T10:59:10;9.20;;;4.72;;
78561;SDS011;68963;52.138;5.446;2023-04-29T11:01:42;10.85;;;5.57;;
78561;SDS011;68963;52.138;5.446;2023-04-29T11:06:40;8.73;;;4.45;;
78561;SDS011;68963;52.138;5.446;2023-04-29T11:09:10;7.50;;;4.20;;
78561;SDS011;68963;52.138;5.446;2023-04-29T11:16:52;10.80;;;5.35;;
78561;SDS011;68963;52.138;5.446;2023-04-29T11:19:22;9.15;;;5.05;;
78561;SDS011;68963;52.138;5.446;2023-04-29T11:22:02;10.48;;;4.97;;
78561;SDS011;68963;52.138;5.446;2023-04-29T11:24:34;9.13;;;4.60;;
78561;SDS011;68963;52.138;5.446;2023-04-29T11:27:02;11.07;;;5.25;;
78561;SDS011;68963;52.138;5.446;2023-04-29T11:29:31;10.48;;;5.60;;
78561;SDS011;68963;52.138;5.446;2023-04-29T11:31:58;11.75;;;4.95;;
78561;SDS011;68963;52.138;5.446;2023-04-29T11:34:27;9.93;;;5.38;;
78561;SDS011;68963;52.138;5.446;2023-04-29T11:36:53;11.85;;;5.20;;
78561;SDS011;68963;52.138;5.446;2023-04-29T11:39:20;9.07;;;5.18;;
78561;SDS011;68963;52.138;5.446;2023-04-29T11:41:47;12.82;;;6.28;;
78561;SDS011;68963;52.138;5.446;2023-04-29T11:44:20;10.20;;;5.75;;
78561;SDS011;68963;52.138;5.446;2023-04-29T11:46:50;11.55;;;5.45;;
78561;SDS011;68963;52.138;5.446;2023-04-29T11:49:16;10.57;;;5.88;;
78561;SDS011;68963;52.138;5.446;2023-04-29T11:51:43;11.30;;;5.90;;
78561;SDS011;68963;52.138;5.446;2023-04-29T11:54:10;10.88;;;5.65;;
78561;SDS011;68963;52.138;5.446;2023-04-29T11:56:37;11.38;;;5.50;;
78561;SDS011;68963;52.138;5.446;2023-04-29T11:59:28;9.48;;;5.07;;
78561;SDS011;68963;52.138;5.446;2023-04-29T12:01:57;9.43;;;5.10;;
78561;SDS011;68963;52.138;5.446;2023-04-29T12:04:24;9.65;;;4.95;;
78561;SDS011;68963;52.138;5.446;2023-04-29T12:06:51;12.43;;;5.97;;
78561;SDS011;68963;52.138;5.446;2023-04-29T12:09:21;12.73;;;5.88;;
78561;SDS011;68963;52.138;5.446;2023-04-29T12:11:48;9.38;;;5.22;;
78561;SDS011;68963;52.138;5.446;2023-04-29T12:14:16;10.38;;;5.30;;
78561;SDS011;68963;52.138;5.446;2023-04-29T12:16:45;9.63;;;5.10;;
78561;SDS011;68963;52.138;5.446;2023-04-29T12:19:13;11.48;;;6.10;;
78561;SDS011;68963;52.138;5.446;2023-04-29T12:21:47;10.88;;;5.30;;
78561;SDS011;68963;52.138;5.446;2023-04-29T12:24:14;10.75;;;5.10;;
78561;SDS011;68963;52.138;5.446;2023-04-29T12:26:41;11.25;;;5.45;;
78561;SDS011;68963;52.138;5.446;2023-04-29T12:29:13;10.75;;;5.95;;
78561;SDS011;68963;52.138;5.446;2023-04-29T12:31:45;14.18;;;7.47;;
78561;SDS011;68963;52.138;5.446;2023-04-29T12:34:15;12.63;;;5.13;;
78561;SDS011;68963;52.138;5.446;2023-04-29T12:36:43;10.90;;;5.45;;
78561;SDS011;68963;52.138;5.446;2023-04-29T12:39:09;10.75;;;5.50;;
78561;SDS011;68963;52.138;5.446;2023-04-29T12:41:37;10.25;;;4.70;;
78561;SDS011;68963;52.138;5.446;2023-04-29T12:44:05;9.48;;;4.32;;
78561;SDS011;68963;52.138;5.446;2023-04-29T12:46:39;9.02;;;4.47;;
78561;SDS011;68963;52.138;5.446;2023-04-29T12:49:06;11.57;;;5.60;;
78561;SDS011;68963;52.138;5.446;2023-04-29T12:51:34;10.38;;;5.25;;
78561;SDS011;68963;52.138;5.446;2023-04-29T12:54:01;10.07;;;5.45;;
78561;SDS011;68963;52.138;5.446;2023-04-29T12:56:29;11.55;;;5.95;;
78561;SDS011;68963;52.138;5.446;2023-04-29T12:59:03;10.77;;;5.97;;
78561;SDS011;68963;52.138;5.446;2023-04-29T13:01:31;12.98;;;5.55;;
78561;SDS011;68963;52.138;5.446;2023-04-29T13:03:58;10.35;;;5.63;;
78561;SDS011;68963;52.138;5.446;2023-04-29T13:06:31;10.18;;;4.90;;
78561;SDS011;68963;52.138;5.446;2023-04-29T13:08:58;14.23;;;6.28;;
78561;SDS011;68963;52.138;5.446;2023-04-29T13:11:24;12.13;;;5.18;;
78561;SDS011;68963;52.138;5.446;2023-04-29T13:13:59;11.23;;;4.82;;
78561;SDS011;68963;52.138;5.446;2023-04-29T13:16:26;10.07;;;5.40;;
78561;SDS011;68963;52.138;5.446;2023-04-29T13:18:53;10.07;;;5.20;;
78561;SDS011;68963;52.138;5.446;2023-04-29T13:21:39;12.43;;;5.35;;
78561;SDS011;68963;52.138;5.446;2023-04-29T13:24:06;11.15;;;5.90;;
78561;SDS011;68963;52.138;5.446;2023-04-29T13:26:33;12.75;;;5.72;;
78561;SDS011;68963;52.138;5.446;2023-04-29T13:29:00;10.18;;;5.65;;
78561;SDS011;68963;52.138;5.446;2023-04-29T13:31:27;11.73;;;5.85;;
78561;SDS011;68963;52.138;5.446;2023-04-29T13:33:54;11.70;;;6.10;;
78561;SDS011;68963;52.138;5.446;2023-04-29T13:36:20;9.30;;;5.00;;
78561;SDS011;68963;52.138;5.446;2023-04-29T13:38:47;12.07;;;5.97;;
78561;SDS011;68963;52.138;5.446;2023-04-29T13:41:20;10.07;;;5.35;;
78561;SDS011;68963;52.138;5.446;2023-04-29T13:43:48;11.45;;;5.72;;
78561;SDS011;68963;52.138;5.446;2023-04-29T13:46:16;10.65;;;5.82;;
78561;SDS011;68963;52.138;5.446;2023-04-29T13:48:46;11.32;;;5.70;;
78561;SDS011;68963;52.138;5.446;2023-04-29T13:51:15;10.35;;;5.55;;
78561;SDS011;68963;52.138;5.446;2023-04-29T13:54:02;12.05;;;5.90;;
78561;SDS011;68963;52.138;5.446;2023-04-29T13:56:34;11.05;;;5.45;;
78561;SDS011;68963;52.138;5.446;2023-04-29T13:59:23;11.55;;;5.18;;
78561;SDS011;68963;52.138;5.446;2023-04-29T14:01:52;10.57;;;5.53;;
78561;SDS011;68963;52.138;5.446;2023-04-29T14:04:39;15.07;;;6.25;;
78561;SDS011;68963;52.138;5.446;2023-04-29T14:07:09;11.85;;;5.40;;
78561;SDS011;68963;52.138;5.446;2023-04-29T14:09:36;9.65;;;5.40;;
78561;SDS011;68963;52.138;5.446;2023-04-29T14:12:02;11.40;;;5.75;;
78561;SDS011;68963;52.138;5.446;2023-04-29T14:14:29;12.10;;;5.82;;
78561;SDS011;68963;52.138;5.446;2023-04-29T14:16:56;9.93;;;5.40;;
78561;SDS011;68963;52.138;5.446;2023-04-29T14:19:22;8.32;;;4.82;;
78561;SDS011;68963;52.138;5.446;2023-04-29T14:21:49;12.30;;;5.10;;
78561;SDS011;68963;52.138;5.446;2023-04-29T14:24:19;9.45;;;5.50;;
78561;SDS011;68963;52.138;5.446;2023-04-29T14:26:47;11.07;;;5.43;;
78561;SDS011;68963;52.138;5.446;2023-04-29T14:29:13;12.35;;;5.43;;
78561;SDS011;68963;52.138;5.446;2023-04-29T14:31:40;11.00;;;5.60;;
78561;SDS011;68963;52.138;5.446;2023-04-29T14:34:07;12.57;;;5.60;;
78561;SDS011;68963;52.138;5.446;2023-04-29T14:36:34;10.15;;;5.35;;
78561;SDS011;68963;52.138;5.446;2023-04-29T14:39:01;9.55;;;5.00;;
78561;SDS011;68963;52.138;5.446;2023-04-29T14:43:57;10.80;;;5.13;;
78561;SDS011;68963;52.138;5.446;2023-04-29T14:46:24;10.95;;;4.63;;
78561;SDS011;68963;52.138;5.446;2023-04-29T14:48:51;9.35;;;4.60;;
78561;SDS011;68963;52.138;5.446;2023-04-29T14:51:17;9.65;;;4.70;;
78561;SDS011;68963;52.138;5.446;2023-04-29T14:53:44;9.02;;;4.65;;
78561;SDS011;68963;52.138;5.446;2023-04-29T14:56:11;8.40;;;4.22;;
78561;SDS011;68963;52.138;5.446;2023-04-29T14:58:37;6.95;;;3.88;;
78561;SDS011;68963;52.138;5.446;2023-04-29T15:01:04;9.10;;;4.47;;
78561;SDS011;68963;52.138;5.446;2023-04-29T15:03:31;9.35;;;4.10;;
78561;SDS011;68963;52.138;5.446;2023-04-29T15:05:59;7.47;;;3.92;;
78561;SDS011;68963;52.138;5.446;2023-04-29T15:08:29;10.35;;;4.30;;
78561;SDS011;68963;52.138;5.446;2023-04-29T15:10:56;10.23;;;4.28;;
78561;SDS011;68963;52.138;5.446;2023-04-29T15:13:22;7.78;;;3.97;;